Details From YBMK - Mackay
To YBRK - Rockhampton
Flight Number -
Tags Routegen Generated
Created
Modified
Stats Distance 150 nm / 277 km
Max Altitude 1,800 ft / 549 m
Waypoints 7
Social Downloads 29
Likes 0
Share

Download

Looking for another format? Having issues loading an existing format? Contact us
Advertisement - Login to hide

Notes

Departing runway 14 YBMK. Arriving runway 15 YBRK.

Route

YBMK -21.24_+149.23 -21.25_+149.24 -21.99_+149.66 -23.22_+150.40 -23.23_+150.41 YBRK

ID Type Via Altitude (ft/m) Position (lat/lon) Dist (leg/tot) Name
O YBMK APT - 0 / 0 -21.17833 / 149.18767 - / 0 nm
-21.24_+149.23 DME - 1,800 / 549 -21.23958 / 149.22899 4 / 4 nm
-21.25_+149.24 DME - 1,800 / 549 -21.25246 / 149.23608 0 / 5 nm
-21.99_+149.66 DME - 1,800 / 549 -21.98930 / 149.66449 50 / 55 nm
-23.22_+150.40 DME - 1,800 / 549 -23.22184 / 150.40362 84 / 140 nm
-23.23_+150.41 DME - 1,800 / 549 -23.23471 / 150.41082 0 / 140 nm
O YBRK APT - 0 / 0 -23.36872 / 150.47035 8 / 149 nm

Altitude Profile

Advertisement - Login to hide

YBMK

Details ICAO YBMK (MKY)
Name Mackay
Region Australia
Timezone Australia/Brisbane (UTC+10.0)
Stats Elevation 18 ft / 5 m (AMSL)
Location -21.171600° 149.181000°
Runways 2
Magnetic Variation 8.324° E

METAR

YBMK 232200Z AUTO 23005KT 9999 // NCD 19/16 Q1020

Decode

TAF

Not found

Departure Runways

ID Width Length Bearing (true/mag) Surface Threshold Overrun Markings Lighting
05 98 ft / 30 m 4,411 ft / 1,344 m 57.80° / 49.48° ASPHALT 194 ft / 59 m 0 ft / 0 m VISUAL EDGE THRESHOLD
14 148 ft / 45 m 6,516 ft / 1,986 m 147.90° / 139.58° ASPHALT 0 ft / 0 m 0 ft / 0 m APP EDGE THRESHOLD
23 98 ft / 30 m 4,411 ft / 1,344 m 237.80° / 229.47° ASPHALT 0 ft / 0 m 0 ft / 0 m VISUAL EDGE THRESHOLD
32 148 ft / 45 m 6,516 ft / 1,986 m 327.90° / 319.57° ASPHALT 0 ft / 0 m 0 ft / 0 m APP EDGE THRESHOLD

YBRK

Details ICAO YBRK (ROK)
Name Rockhampton
Region Australia
Timezone Australia/Brisbane (UTC+10.0)
Stats Elevation 36 ft / 11 m (AMSL)
Location -23.378800° 150.474000°
Runways 2
Magnetic Variation 9.176° E

METAR

YBRK 232300Z AUTO 20003KT 9999 // NCD 22/12 Q1021

Decode

TAF

TAF YBRK 231717Z 2318/2418 23005KT 9999 FEW025 FM240000 07010KT CAVOK FM240900 01006KT CAVOK

Decode

Destination Runways

ID Width Length Bearing (true/mag) Surface Threshold Overrun Markings Lighting
04 98 ft / 30 m 5,394 ft / 1,644 m 52.27° / 43.09° ASPHALT 0 ft / 0 m 0 ft / 0 m PREC-APP
15 145 ft / 44 m 8,650 ft / 2,637 m 157.79° / 148.62° ASPHALT 200 ft / 61 m 292 ft / 89 m PREC-APP CENTERLINE EDGE THRESHOLD REIL-OMNI
22 98 ft / 30 m 5,394 ft / 1,644 m 232.26° / 223.09° ASPHALT 2,769 ft / 844 m 0 ft / 0 m NONE
33 145 ft / 44 m 8,650 ft / 2,637 m 337.79° / 328.61° ASPHALT 0 ft / 0 m 213 ft / 65 m PREC-APP CENTERLINE EDGE THRESHOLD REIL-OMNI

Popular Alternatives